Terminal Aerodrome Forecast
Issued by NWS Sterling, VA

Current Version | Previous Version | Text Only | Print | Product List | Glossary Off
Versions: 1 2 3 4 5 6 7 8 9 10 11 12 13 14 15 16 17 18 19 20 21 22 23 24 25

000
FTUS41 KLWX 260900 AAA
TAFDCA
TAF AMD
KDCA 260914Z 2609/2706 01008KT P6SM -RA OVC050
     FM261200 02010KT 3SM RA OVC008
     FM261500 02011KT 2SM RASN OVC003
     FM261800 35012G18KT 2SM -RASN OVC003
     FM262000 33012G18KT 2SM -RASN OVC008
     FM262300 32011KT P6SM OVC008
     FM270400 31006KT P6SM BKN045=

USA.gov is the U.S. government's official web portal to all federal, state and local government web resources and services.